AirNav   ProFlight Series 2 Aviation Headset
 
 982 users online  

1T8 Bulverde Airpark
San Antonio, Texas, USA

GOING TO SAN ANTONIO?


FAA INFORMATION EFFECTIVE 18 JUNE 2020

Location

FAA Identifier: 1T8
Lat/Long: 29-44-20.8000N 098-27-04.0610W
29-44.346667N 098-27.067683W
29.7391111,-98.4511281
(estimated)
Elevation: 1080 ft. / 329 m (estimated)
Variation: 07E (1985)
From city: 16 miles N of SAN ANTONIO, TX
Time zone: UTC -5 (UTC -6 during Standard Time)
Zip code: 78163

Airport Operations

Airport use: Open to the public
Control tower: no
ARTCC: HOUSTON CENTER
FSS: SAN ANGELO FLIGHT SERVICE STATION
NOTAMs facility: SJT (NOTAM-D service available)
Attendance: 0900-1700
Wind indicator: yes
Segmented circle: yes
Lights: ACTVT LIRL RY 16/34 - CTAF.
Beacon: white-green (lighted land airport)
DUSK-2200.

Airport Communications

CTAF/UNICOM: 122.8
WX ASOS at SAT (12 nm S): PHONE 210-805-5583
WX AWOS-3 at 5C1 (13 nm W): 118.725 (830-755-9099)

Nearby radio navigation aids

VOR radial/distance  VOR name  Freq  Var
SATr357/5.7SAN ANTONIO VORTAC116.8008E
RNDr322/15.8RANDOLPH VORTAC112.3005E
SSFr350/(28.8)STINSON VOR108.4009E
STVr147/31.0STONEWALL VORTAC113.8008E

 
NDB name  Hdg/Dist  Freq  Var  ID
ALAMO034/10.036804EAN .- -.

Airport Services

Fuel available: 100LL
FUEL AVBL 24 HRS SELF SVC WITH MAJOR CREDIT CARD
Parking: hangars and tiedowns
Airframe service: MAJOR
Powerplant service: MAJOR

Runway Information

Runway 16/34

Dimensions: 2890 x 40 ft. / 881 x 12 m
Surface: asphalt, in good condition
Runway edge lights: non-standard
NSTD LIRL; ONLY CNTR 2600 FT LGTD; RWY 16 DSPLCD THLD HAS SINGLE GREEN LGT EACH SIDE. RWY 34 HAS NO DSPLCD THLD LGTS.
Runway edge markings: RWY 16/34 MKD WITH 20 FT HIGH NRS; NO CNTRLN STRIPES; NUMBERS NOT AT DSPLCD THLD; AND NO DSPLCD THLD MARKINGS
RUNWAY 16  RUNWAY 34
Traffic pattern: rightleft
Displaced threshold: 490 ft.200 ft.
Markings: NSTD, in fair conditionNSTD, in fair condition
Obstructions: 36 ft. pline, marked and lighted, 200 ft. from runway, 125 ft. right of centerline
RWY 16 +6' FENCE 100' FM THR ON CNTRLN; +10' ROAD 110' FM THR ACROSS CNTRLN; +25'-40' TREES 120' FM THR 75'-125' L OF CNTRLN, +35' POWER POLES 0' FM THR 108' L OF CNTRLN
27 ft. trees, 255 ft. from runway, 102 ft. right of centerline, 2:1 slope to clear
+36 FT TREES AT THLD 120 FT R.

Airport Ownership and Management from official FAA records

Ownership: Privately-owned
Owner: MARKLINE PROPERTIES INC
P.O. BOX 130
BULVERDE, TX 78163
Phone 830-438-4359
Manager: DANA ANDERSON
29890 BULVERDE LN #27
BULVERDE, TX 78163
Phone (210) 275-4970

Airport Operational Statistics

Aircraft based on the field: 84
Single engine airplanes: 76
Multi engine airplanes: 4
Helicopters: 4
    
Aircraft operations: avg 66/day *
67% local general aviation
33% transient general aviation
* for 12-month period ending 14 December 2016

Additional Remarks

NOISE ABATEMENT PROCEDURES IN EFFECT CTC AMGR 830-438-4359.
NO TOUCH & GO, STOP & GO, OR LOW APPROACHES.
DEER ON OR IN INVOF ARPT
HELICOPTER LEFT HAND TRAFFIC 16; ALL OTHER RIGHT HAND TRAFFIC 16.
FOR CD CTC SAN ANTONIO APCH AT 210-805-5516.
ALL HOP RQR AMGR OR OWNER PPR
USE EXTREME CTN FOR HIGH PER MIL ACFT FROM RANDOLPH AFB AT OR ABV 3000 FT MSL MON-FRI 0800-2200 AND WHEN TWR HRS EXTD BY NOTAM, OCNL SAT AND SUN.

Instrument Procedures

There are no published instrument procedures at 1T8.

Some nearby airports with instrument procedures:

KSAT - San Antonio International Airport (12 nm S)
5C1 - Boerne Stage Field Airport (13 nm W)
KRND - Randolph Air Force Base (16 nm SE)
KBAZ - New Braunfels Regional Airport (21 nm E)
KSKF - Kelly Field Airport (22 nm S)
 
Loc | Ops | Rwys | IFR | FBO | Links
Com | Nav | Svcs | Stats | Notes
Area around 1T8 (Bulverde Airpark)
 
Road maps at: MapQuest Bing Google
 
Aerial photo
WARNING: Photo may not be current or correct
Aerial photo of 1T8 (Bulverde Airpark)
Photo © Copyright 2004, by Michael Verber

Do you have a better or more recent aerial photo of Bulverde Airpark that you would like to share? If so, please send us your photo.

 
Sectional chart

 
Airport distance calculator
Flying to Bulverde Airpark? Find the distance to fly.

From to 1T8

Sunrise and sunset
Times for 11-Jul-2020
 Local
(UTC-5)
 Zulu
(UTC)
Morning civil twilight06:1611:16
Sunrise06:4311:43
Sunset20:3601:36
Evening civil twilight21:0302:03

Current date and time
Zulu (UTC)  11-Jul-2020 18:22:32
Local (UTC-5)  11-Jul-2020 13:22:32
 
METAR
KSAT 
12nm S 
111751Z 23007KT 10SM FEW250 35/22 A3005 RMK AO2 SLP155 T03500217 10350 20256 58006 $
K5C1 
13nm W 
111755Z AUTO 21007KT 10SM CLR 32/19 A3009 RMK AO1
KRND 
16nm SE 
111756Z AUTO 23007KT 10SM FEW160 FEW200 34/21 A3004 RMK AO2 SLP163 T03430210 10343 20251 58007 $
KBAZ 
21nm E 
111751Z 20008G16KT 10SM CLR 36/21 A3003 RMK AO2 SLP157 T03610206 10361 20267 58009
KSKF 
23nm S 
111756Z AUTO 26003KT 10SM FEW160 SCT190 35/22 A3003 RMK AO2 SLP160 T03450218 10346 20253 58005 $
KSSF 
24nm S 
111753Z VRB06KT 10SM CLR 33/22 A3002 RMK AO2 SLP151 T03330222 10339 20244 58008 $
TAF
KSAT 
12nm S 
111734Z 1118/1224 19008KT P6SM SKC FM112000 16008KT P6SM SKC FM121200 20008KT P6SM FEW020
KRND 
16nm SE 
102213Z 1022/1122 16010G15KT 9999 SCT040 QNH2991INS BECMG 1102/1103 15009KT 9999 SKC QNH2996INS BECMG 1110/1111 17009KT 9999 BKN015 QNH3000INS BECMG 1115/1116 20010G15KT 9999 FEW035 QNH3003INS TX39/1022Z TN25/1112Z LAST NO AMDS AFT 1022 NEXT 1310
NOTAMs
Click for the latest NOTAMs
NOTAMs are issued by the DoD/FAA and will open in a separate window not controlled by AirNav.

 

 
 

FBO, Fuel Providers, and Aircraft Ground Support

  
 Business Name 
 
 Contact 
 
 Services / Description 
 
Fuel Prices
 
Comments
  
 Anderson Aviation
839-438-4359
[web site]
[email]
Airport management, Aviation fuel, Flight training, Aircraft rental, Pilot supplies

More info about Anderson Aviation
EPIC
100LL
SS $3.95 
 Updated 30-Jun-2020
 
   write
SS=Self service
Update Fuel Prices
 

Would you like to see your business listed on this page?

 If your business provides an interesting product or service to pilots, flight crews, aircraft, or users of the Bulverde Airpark, you should consider listing it here.  To start the listing process, click on the button below
 
Add a business
 

Other Pages about Bulverde Airpark

Update a link
 
Copyright © AirNav, LLC. All rights reserved. Privacy Policy  Contact